sensor_id;sensor_type;location;lat;lon;timestamp;pressure;altitude;pressure_sealevel;temperature;humidity
74722;BME280;63470;49.826;6.740;2023-02-01T00:02:01;100862.84;;;7.01;69.62
74722;BME280;63470;49.826;6.740;2023-02-01T00:04:31;100857.03;;;7.04;69.59
74722;BME280;63470;49.826;6.740;2023-02-01T00:07:01;100852.37;;;7.05;69.60
74722;BME280;63470;49.826;6.740;2023-02-01T00:09:31;100852.64;;;7.08;69.58
74722;BME280;63470;49.826;6.740;2023-02-01T00:12:06;100852.65;;;7.08;69.61
74722;BME280;63470;49.826;6.740;2023-02-01T00:14:39;100848.38;;;7.09;69.64
74722;BME280;63470;49.826;6.740;2023-02-01T00:17:02;100842.41;;;7.10;69.65
74722;BME280;63470;49.826;6.740;2023-02-01T00:19:33;100842.27;;;7.11;69.65
74722;BME280;63470;49.826;6.740;2023-02-01T00:22:05;100834.95;;;7.11;69.66
74722;BME280;63470;49.826;6.740;2023-02-01T00:24:34;100831.76;;;7.11;69.68
74722;BME280;63470;49.826;6.740;2023-02-01T00:27:04;100832.23;;;7.11;69.69
74722;BME280;63470;49.826;6.740;2023-02-01T00:29:35;100832.76;;;7.13;69.67
74722;BME280;63470;49.826;6.740;2023-02-01T00:32:06;100832.08;;;7.13;69.65
74722;BME280;63470;49.826;6.740;2023-02-01T00:34:36;100826.17;;;7.13;69.65
74722;BME280;63470;49.826;6.740;2023-02-01T00:37:07;100832.02;;;7.13;69.66
74722;BME280;63470;49.826;6.740;2023-02-01T00:39:37;100834.73;;;7.14;69.66
74722;BME280;63470;49.826;6.740;2023-02-01T00:42:09;100833.02;;;7.15;69.65
74722;BME280;63470;49.826;6.740;2023-02-01T00:44:38;100837.27;;;7.16;69.62
74722;BME280;63470;49.826;6.740;2023-02-01T00:47:09;100831.93;;;7.15;69.64
74722;BME280;63470;49.826;6.740;2023-02-01T00:49:40;100833.77;;;7.16;69.69
74722;BME280;63470;49.826;6.740;2023-02-01T00:52:10;100827.28;;;7.17;69.71
74722;BME280;63470;49.826;6.740;2023-02-01T00:54:41;100821.29;;;7.18;69.72
74722;BME280;63470;49.826;6.740;2023-02-01T00:57:12;100818.66;;;7.17;69.76
74722;BME280;63470;49.826;6.740;2023-02-01T00:59:42;100817.02;;;7.16;69.78
74722;BME280;63470;49.826;6.740;2023-02-01T01:02:15;100816.42;;;7.16;69.82
74722;BME280;63470;49.826;6.740;2023-02-01T01:04:43;100816.83;;;7.15;69.79
74722;BME280;63470;49.826;6.740;2023-02-01T01:07:14;100816.52;;;7.17;69.79
74722;BME280;63470;49.826;6.740;2023-02-01T01:09:45;100815.79;;;7.19;69.74
74722;BME280;63470;49.826;6.740;2023-02-01T01:12:15;100810.23;;;7.22;69.66
74722;BME280;63470;49.826;6.740;2023-02-01T01:14:46;100810.33;;;7.23;69.66
74722;BME280;63470;49.826;6.740;2023-02-01T01:17:16;100808.95;;;7.24;69.67
74722;BME280;63470;49.826;6.740;2023-02-01T01:19:47;100816.25;;;7.25;69.69
74722;BME280;63470;49.826;6.740;2023-02-01T01:22:18;100814.13;;;7.25;69.71
74722;BME280;63470;49.826;6.740;2023-02-01T01:24:48;100819.05;;;7.26;69.71
74722;BME280;63470;49.826;6.740;2023-02-01T01:27:24;100820.61;;;7.26;69.71
74722;BME280;63470;49.826;6.740;2023-02-01T01:29:49;100818.31;;;7.25;69.77
74722;BME280;63470;49.826;6.740;2023-02-01T01:32:20;100822.49;;;7.25;69.77
74722;BME280;63470;49.826;6.740;2023-02-01T01:34:50;100817.72;;;7.24;69.76
74722;BME280;63470;49.826;6.740;2023-02-01T01:37:21;100814.01;;;7.22;69.74
74722;BME280;63470;49.826;6.740;2023-02-01T01:39:51;100821.70;;;7.17;69.78
74722;BME280;63470;49.826;6.740;2023-02-01T01:42:22;100810.89;;;7.11;69.81
74722;BME280;63470;49.826;6.740;2023-02-01T01:45:07;100818.26;;;7.06;69.88
74722;BME280;63470;49.826;6.740;2023-02-01T01:47:24;100813.70;;;7.03;69.94
74722;BME280;63470;49.826;6.740;2023-02-01T01:49:54;100810.64;;;7.01;69.96
74722;BME280;63470;49.826;6.740;2023-02-01T01:52:24;100812.12;;;7.00;69.98
74722;BME280;63470;49.826;6.740;2023-02-01T01:54:56;100810.57;;;6.98;70.00
74722;BME280;63470;49.826;6.740;2023-02-01T01:57:38;100805.77;;;6.97;70.01
74722;BME280;63470;49.826;6.740;2023-02-01T02:00:01;100798.89;;;6.96;70.05
74722;BME280;63470;49.826;6.740;2023-02-01T02:02:27;100790.20;;;6.97;70.08
74722;BME280;63470;49.826;6.740;2023-02-01T02:04:58;100788.64;;;6.98;70.10
74722;BME280;63470;49.826;6.740;2023-02-01T02:07:32;100780.36;;;6.99;70.10
74722;BME280;63470;49.826;6.740;2023-02-01T02:10:00;100775.78;;;7.01;70.10
74722;BME280;63470;49.826;6.740;2023-02-01T02:12:30;100773.76;;;7.02;70.11
74722;BME280;63470;49.826;6.740;2023-02-01T02:15:03;100776.06;;;7.05;70.10
74722;BME280;63470;49.826;6.740;2023-02-01T02:17:48;100764.83;;;7.07;70.11
74722;BME280;63470;49.826;6.740;2023-02-01T02:20:19;100759.00;;;7.07;70.09
74722;BME280;63470;49.826;6.740;2023-02-01T02:27:43;100763.48;;;7.10;70.01
74722;BME280;63470;49.826;6.740;2023-02-01T02:30:48;100761.33;;;7.11;70.03
74722;BME280;63470;49.826;6.740;2023-02-01T02:35:24;100786.36;;;7.12;70.07
74722;BME280;63470;49.826;6.740;2023-02-01T02:37:46;100792.60;;;7.12;70.08
74722;BME280;63470;49.826;6.740;2023-02-01T02:40:18;100790.05;;;7.11;70.07
74722;BME280;63470;49.826;6.740;2023-02-01T02:43:22;100786.62;;;7.11;70.09
74722;BME280;63470;49.826;6.740;2023-02-01T02:46:01;100770.43;;;7.10;70.14
74722;BME280;63470;49.826;6.740;2023-02-01T02:51:13;100769.12;;;7.12;70.25
74722;BME280;63470;49.826;6.740;2023-02-01T02:53:17;100766.21;;;7.15;70.18
74722;BME280;63470;49.826;6.740;2023-02-01T02:55:10;100764.59;;;7.18;70.10
74722;BME280;63470;49.826;6.740;2023-02-01T02:58:16;100762.47;;;7.20;70.11
74722;BME280;63470;49.826;6.740;2023-02-01T03:00:50;100763.60;;;7.21;70.08
74722;BME280;63470;49.826;6.740;2023-02-01T03:03:16;100764.30;;;7.23;70.04
74722;BME280;63470;49.826;6.740;2023-02-01T03:05:13;100764.72;;;7.25;69.99
74722;BME280;63470;49.826;6.740;2023-02-01T03:08:02;100761.35;;;7.28;70.00
74722;BME280;63470;49.826;6.740;2023-02-01T03:13:02;100761.80;;;7.34;69.90
74722;BME280;63470;49.826;6.740;2023-02-01T03:15:16;100758.45;;;7.35;69.92
74722;BME280;63470;49.826;6.740;2023-02-01T03:17:47;100760.59;;;7.37;69.95
74722;BME280;63470;49.826;6.740;2023-02-01T03:20:18;100756.50;;;7.40;69.92
74722;BME280;63470;49.826;6.740;2023-02-01T03:22:46;100754.64;;;7.45;69.88
74722;BME280;63470;49.826;6.740;2023-02-01T03:25:21;100756.60;;;7.46;69.89
74722;BME280;63470;49.826;6.740;2023-02-01T03:27:52;100760.37;;;7.44;69.93
74722;BME280;63470;49.826;6.740;2023-02-01T03:30:27;100773.02;;;7.43;69.98
74722;BME280;63470;49.826;6.740;2023-02-01T03:33:05;100775.12;;;7.40;70.04
74722;BME280;63470;49.826;6.740;2023-02-01T03:35:24;100769.61;;;7.37;70.10
74722;BME280;63470;49.826;6.740;2023-02-01T03:37:49;100771.92;;;7.38;70.12
74722;BME280;63470;49.826;6.740;2023-02-01T03:40:20;100767.33;;;7.40;70.12
74722;BME280;63470;49.826;6.740;2023-02-01T03:42:54;100768.64;;;7.38;70.12
74722;BME280;63470;49.826;6.740;2023-02-01T03:45:27;100772.84;;;7.39;70.07
74722;BME280;63470;49.826;6.740;2023-02-01T03:47:53;100779.47;;;7.38;70.03
74722;BME280;63470;49.826;6.740;2023-02-01T03:50:26;100780.27;;;7.35;70.03
74722;BME280;63470;49.826;6.740;2023-02-01T03:52:56;100783.38;;;7.32;70.07
74722;BME280;63470;49.826;6.740;2023-02-01T03:55:25;100788.95;;;7.29;70.12
74722;BME280;63470;49.826;6.740;2023-02-01T03:58:00;100782.62;;;7.28;70.14
74722;BME280;63470;49.826;6.740;2023-02-01T04:00:24;100781.70;;;7.28;70.12
74722;BME280;63470;49.826;6.740;2023-02-01T04:02:53;100785.58;;;7.28;70.09
74722;BME280;63470;49.826;6.740;2023-02-01T04:05:23;100785.48;;;7.29;70.03
74722;BME280;63470;49.826;6.740;2023-02-01T04:07:54;100787.22;;;7.28;70.01
74722;BME280;63470;49.826;6.740;2023-02-01T04:10:25;100790.51;;;7.27;70.03
74722;BME280;63470;49.826;6.740;2023-02-01T04:12:54;100789.36;;;7.28;70.00
74722;BME280;63470;49.826;6.740;2023-02-01T04:15:25;100787.54;;;7.27;70.02
74722;BME280;63470;49.826;6.740;2023-02-01T04:17:56;100786.22;;;7.28;70.02
74722;BME280;63470;49.826;6.740;2023-02-01T04:20:26;100787.23;;;7.29;70.04
74722;BME280;63470;49.826;6.740;2023-02-01T04:22:57;100784.45;;;7.29;70.07
74722;BME280;63470;49.826;6.740;2023-02-01T04:25:27;100784.67;;;7.30;70.03
74722;BME280;63470;49.826;6.740;2023-02-01T04:27:57;100783.30;;;7.29;70.03
74722;BME280;63470;49.826;6.740;2023-02-01T04:30:28;100788.28;;;7.28;70.02
74722;BME280;63470;49.826;6.740;2023-02-01T04:32:59;100783.03;;;7.27;70.01
74722;BME280;63470;49.826;6.740;2023-02-01T04:35:29;100790.97;;;7.26;70.02
74722;BME280;63470;49.826;6.740;2023-02-01T04:38:03;100786.72;;;7.27;69.99
74722;BME280;63470;49.826;6.740;2023-02-01T04:40:30;100791.89;;;7.28;69.96
74722;BME280;63470;49.826;6.740;2023-02-01T04:43:01;100792.97;;;7.29;69.97
74722;BME280;63470;49.826;6.740;2023-02-01T04:45:31;100797.64;;;7.30;69.94
74722;BME280;63470;49.826;6.740;2023-02-01T04:48:02;100788.86;;;7.30;69.96
74722;BME280;63470;49.826;6.740;2023-02-01T04:50:33;100781.00;;;7.29;69.96
74722;BME280;63470;49.826;6.740;2023-02-01T04:53:06;100790.75;;;7.30;69.93
74722;BME280;63470;49.826;6.740;2023-02-01T04:55:37;100807.69;;;7.31;69.92
74722;BME280;63470;49.826;6.740;2023-02-01T04:58:05;100799.78;;;7.30;69.89
74722;BME280;63470;49.826;6.740;2023-02-01T05:00:36;100793.87;;;7.27;69.88
74722;BME280;63470;49.826;6.740;2023-02-01T05:03:06;100791.62;;;7.24;69.90
74722;BME280;63470;49.826;6.740;2023-02-01T05:05:36;100788.09;;;7.22;69.89
74722;BME280;63470;49.826;6.740;2023-02-01T05:08:07;100796.59;;;7.21;69.91
74722;BME280;63470;49.826;6.740;2023-02-01T05:10:37;100790.62;;;7.20;69.94
74722;BME280;63470;49.826;6.740;2023-02-01T05:13:44;100785.27;;;7.21;69.96
74722;BME280;63470;49.826;6.740;2023-02-01T05:15:38;100788.08;;;7.21;69.99
74722;BME280;63470;49.826;6.740;2023-02-01T05:18:09;100789.16;;;7.23;70.09
74722;BME280;63470;49.826;6.740;2023-02-01T05:20:40;100790.55;;;7.24;70.11
74722;BME280;63470;49.826;6.740;2023-02-01T05:23:10;100799.56;;;7.23;70.09
74722;BME280;63470;49.826;6.740;2023-02-01T05:25:41;100806.57;;;7.25;70.07
74722;BME280;63470;49.826;6.740;2023-02-01T05:28:11;100804.75;;;7.24;70.02
74722;BME280;63470;49.826;6.740;2023-02-01T05:30:42;100807.95;;;7.24;70.01
74722;BME280;63470;49.826;6.740;2023-02-01T05:33:12;100796.63;;;7.24;69.96
74722;BME280;63470;49.826;6.740;2023-02-01T05:35:43;100796.33;;;7.28;69.89
74722;BME280;63470;49.826;6.740;2023-02-01T05:38:14;100802.76;;;7.31;69.85
74722;BME280;63470;49.826;6.740;2023-02-01T05:40:50;100810.31;;;7.31;69.80
74722;BME280;63470;49.826;6.740;2023-02-01T05:43:14;100817.59;;;7.30;69.77
74722;BME280;63470;49.826;6.740;2023-02-01T05:45:45;100815.36;;;7.26;69.83
74722;BME280;63470;49.826;6.740;2023-02-01T05:48:16;100814.92;;;7.23;69.87
74722;BME280;63470;49.826;6.740;2023-02-01T05:50:46;100816.76;;;7.17;69.90
74722;BME280;63470;49.826;6.740;2023-02-01T05:53:17;100824.41;;;7.15;69.97
74722;BME280;63470;49.826;6.740;2023-02-01T05:55:47;100822.14;;;7.13;69.95
74722;BME280;63470;49.826;6.740;2023-02-01T05:58:18;100817.62;;;7.10;70.00
74722;BME280;63470;49.826;6.740;2023-02-01T06:00:49;100819.32;;;7.08;70.01
74722;BME280;63470;49.826;6.740;2023-02-01T06:03:19;100814.89;;;7.06;70.05
74722;BME280;63470;49.826;6.740;2023-02-01T06:05:50;100809.62;;;7.07;69.98
74722;BME280;63470;49.826;6.740;2023-02-01T06:08:20;100812.25;;;7.07;69.94
74722;BME280;63470;49.826;6.740;2023-02-01T06:10:59;100814.55;;;7.04;69.90
74722;BME280;63470;49.826;6.740;2023-02-01T06:13:22;100813.99;;;6.98;69.92
74722;BME280;63470;49.826;6.740;2023-02-01T06:15:53;100825.38;;;6.97;70.01
74722;BME280;63470;49.826;6.740;2023-02-01T06:18:24;100820.41;;;7.00;69.98
74722;BME280;63470;49.826;6.740;2023-02-01T06:20:57;100813.04;;;7.02;69.89
74722;BME280;63470;49.826;6.740;2023-02-01T06:23:24;100811.55;;;7.00;69.87
74722;BME280;63470;49.826;6.740;2023-02-01T06:26:02;100814.86;;;6.95;69.90
74722;BME280;63470;49.826;6.740;2023-02-01T06:28:25;100815.79;;;6.87;69.99
74722;BME280;63470;49.826;6.740;2023-02-01T06:30:56;100820.79;;;6.85;70.08
74722;BME280;63470;49.826;6.740;2023-02-01T06:33:31;100819.47;;;6.77;70.07
74722;BME280;63470;49.826;6.740;2023-02-01T06:35:58;100818.89;;;6.67;70.04
74722;BME280;63470;49.826;6.740;2023-02-01T06:38:28;100823.06;;;6.57;70.02
74722;BME280;63470;49.826;6.740;2023-02-01T06:41:13;100828.89;;;6.43;70.03
74722;BME280;63470;49.826;6.740;2023-02-01T06:43:30;100830.45;;;6.25;70.15
74722;BME280;63470;49.826;6.740;2023-02-01T06:46:04;100823.41;;;6.11;70.26
74722;BME280;63470;49.826;6.740;2023-02-01T06:48:33;100825.54;;;5.98;70.31
74722;BME280;63470;49.826;6.740;2023-02-01T06:51:25;100821.63;;;5.88;70.33
74722;BME280;63470;49.826;6.740;2023-02-01T06:53:32;100819.88;;;5.76;70.31
74722;BME280;63470;49.826;6.740;2023-02-01T06:56:03;100826.88;;;5.65;70.30
74722;BME280;63470;49.826;6.740;2023-02-01T06:58:33;100828.34;;;5.59;70.30
74722;BME280;63470;49.826;6.740;2023-02-01T07:01:05;100829.98;;;5.54;70.25
74722;BME280;63470;49.826;6.740;2023-02-01T07:03:34;100827.79;;;5.48;70.30
74722;BME280;63470;49.826;6.740;2023-02-01T07:06:06;100833.56;;;5.46;70.34
74722;BME280;63470;49.826;6.740;2023-02-01T07:08:37;100832.17;;;5.51;70.42
74722;BME280;63470;49.826;6.740;2023-02-01T07:11:14;100836.91;;;5.64;70.50
74722;BME280;63470;49.826;6.740;2023-02-01T07:13:36;100835.33;;;5.79;70.53
74722;BME280;63470;49.826;6.740;2023-02-01T07:16:10;100839.17;;;5.96;70.41
74722;BME280;63470;49.826;6.740;2023-02-01T07:18:37;100834.06;;;6.13;70.12
74722;BME280;63470;49.826;6.740;2023-02-01T07:21:07;100832.71;;;6.24;69.91
74722;BME280;63470;49.826;6.740;2023-02-01T07:23:37;100836.67;;;6.33;69.83
74722;BME280;63470;49.826;6.740;2023-02-01T07:26:11;100844.15;;;6.42;69.79
74722;BME280;63470;49.826;6.740;2023-02-01T07:28:39;100850.69;;;6.49;69.78
74722;BME280;63470;49.826;6.740;2023-02-01T07:31:14;100862.26;;;6.56;69.78
74722;BME280;63470;49.826;6.740;2023-02-01T07:33:48;100864.85;;;6.62;69.77
74722;BME280;63470;49.826;6.740;2023-02-01T07:36:16;100864.80;;;6.67;69.79
74722;BME280;63470;49.826;6.740;2023-02-01T07:38:43;100867.41;;;6.70;69.81
74722;BME280;63470;49.826;6.740;2023-02-01T07:41:21;100866.62;;;6.74;69.78
74722;BME280;63470;49.826;6.740;2023-02-01T07:43:43;100871.59;;;6.80;69.79
74722;BME280;63470;49.826;6.740;2023-02-01T07:46:16;100875.64;;;6.85;69.75
74722;BME280;63470;49.826;6.740;2023-02-01T07:48:48;100878.80;;;6.89;69.73
74722;BME280;63470;49.826;6.740;2023-02-01T07:51:18;100887.00;;;6.95;69.71
74722;BME280;63470;49.826;6.740;2023-02-01T07:53:45;100897.28;;;6.98;69.69
74722;BME280;63470;49.826;6.740;2023-02-01T07:56:18;100902.83;;;7.03;69.69
74722;BME280;63470;49.826;6.740;2023-02-01T07:58:50;100905.95;;;7.06;69.67
74722;BME280;63470;49.826;6.740;2023-02-01T08:01:26;100905.24;;;7.08;69.66
74722;BME280;63470;49.826;6.740;2023-02-01T08:03:56;100900.75;;;7.10;69.64
74722;BME280;63470;49.826;6.740;2023-02-01T08:06:18;100898.71;;;7.12;69.64
74722;BME280;63470;49.826;6.740;2023-02-01T08:08:49;100903.48;;;7.14;69.63
74722;BME280;63470;49.826;6.740;2023-02-01T08:11:20;100897.75;;;7.15;69.67
74722;BME280;63470;49.826;6.740;2023-02-01T08:13:53;100901.89;;;7.17;69.68
74722;BME280;63470;49.826;6.740;2023-02-01T08:16:20;100896.82;;;7.19;69.70
74722;BME280;63470;49.826;6.740;2023-02-01T08:18:55;100895.33;;;7.19;69.71
74722;BME280;63470;49.826;6.740;2023-02-01T08:21:25;100895.26;;;7.20;69.76
74722;BME280;63470;49.826;6.740;2023-02-01T08:23:52;100898.41;;;7.23;69.83
74722;BME280;63470;49.826;6.740;2023-02-01T08:26:25;100910.02;;;7.27;69.80
74722;BME280;63470;49.826;6.740;2023-02-01T08:28:58;100914.62;;;7.30;69.80
74722;BME280;63470;49.826;6.740;2023-02-01T08:31:24;100911.89;;;7.35;69.73
74722;BME280;63470;49.826;6.740;2023-02-01T08:33:55;100909.39;;;7.41;69.69
74722;BME280;63470;49.826;6.740;2023-02-01T08:36:25;100899.39;;;7.44;69.64
74722;BME280;63470;49.826;6.740;2023-02-01T08:38:54;100897.49;;;7.43;69.65
74722;BME280;63470;49.826;6.740;2023-02-01T08:41:27;100901.98;;;7.39;69.66
74722;BME280;63470;49.826;6.740;2023-02-01T08:43:56;100908.50;;;7.35;69.71
74722;BME280;63470;49.826;6.740;2023-02-01T08:46:26;100918.92;;;7.33;69.79
74722;BME280;63470;49.826;6.740;2023-02-01T08:48:57;100921.03;;;7.32;69.84
74722;BME280;63470;49.826;6.740;2023-02-01T08:51:27;100918.33;;;7.30;69.90
74722;BME280;63470;49.826;6.740;2023-02-01T08:53:58;100906.44;;;7.31;69.91
74722;BME280;63470;49.826;6.740;2023-02-01T08:56:28;100909.64;;;7.34;69.87
74722;BME280;63470;49.826;6.740;2023-02-01T08:58:59;100916.08;;;7.36;69.85
74722;BME280;63470;49.826;6.740;2023-02-01T09:01:29;100914.55;;;7.41;69.77
74722;BME280;63470;49.826;6.740;2023-02-01T09:03:59;100914.28;;;7.47;69.73
74722;BME280;63470;49.826;6.740;2023-02-01T09:06:30;100924.17;;;7.53;69.64
74722;BME280;63470;49.826;6.740;2023-02-01T09:09:01;100934.69;;;7.56;69.65
74722;BME280;63470;49.826;6.740;2023-02-01T09:11:36;100939.22;;;7.57;69.64
74722;BME280;63470;49.826;6.740;2023-02-01T09:14:07;100941.61;;;7.58;69.65
74722;BME280;63470;49.826;6.740;2023-02-01T09:16:33;100941.82;;;7.61;69.69
74722;BME280;63470;49.826;6.740;2023-02-01T09:19:12;100939.40;;;7.67;69.64
74722;BME280;63470;49.826;6.740;2023-02-01T09:21:42;100937.95;;;7.73;69.60
74722;BME280;63470;49.826;6.740;2023-02-01T09:24:11;100943.70;;;7.73;69.57
74722;BME280;63470;49.826;6.740;2023-02-01T09:26:35;100947.61;;;7.70;69.65
74722;BME280;63470;49.826;6.740;2023-02-01T09:29:14;100955.32;;;7.67;69.73
74722;BME280;63470;49.826;6.740;2023-02-01T09:31:37;100963.51;;;7.64;69.75
74722;BME280;63470;49.826;6.740;2023-02-01T09:34:09;100961.52;;;7.61;69.79
74722;BME280;63470;49.826;6.740;2023-02-01T09:36:38;100973.00;;;7.57;69.80
74722;BME280;63470;49.826;6.740;2023-02-01T09:39:08;100973.86;;;7.55;69.87
74722;BME280;63470;49.826;6.740;2023-02-01T09:41:58;100973.03;;;7.55;69.92
74722;BME280;63470;49.826;6.740;2023-02-01T09:44:30;100971.00;;;7.55;69.87
74722;BME280;63470;49.826;6.740;2023-02-01T09:46:40;100969.42;;;7.54;69.79
74722;BME280;63470;49.826;6.740;2023-02-01T09:49:16;100981.00;;;7.53;69.77
74722;BME280;63470;49.826;6.740;2023-02-01T09:51:49;100986.48;;;7.50;69.79
74722;BME280;63470;49.826;6.740;2023-02-01T09:54:18;100987.86;;;7.49;69.82
74722;BME280;63470;49.826;6.740;2023-02-01T09:56:48;100990.47;;;7.48;69.85
74722;BME280;63470;49.826;6.740;2023-02-01T10:01:43;100987.34;;;7.45;69.86
74722;BME280;63470;49.826;6.740;2023-02-01T10:04:16;100982.40;;;7.46;69.86
74722;BME280;63470;49.826;6.740;2023-02-01T10:07:04;100983.10;;;7.50;69.84
74722;BME280;63470;49.826;6.740;2023-02-01T10:09:39;100975.33;;;7.54;69.83
74722;BME280;63470;49.826;6.740;2023-02-01T10:12:32;100974.34;;;7.61;69.83
74722;BME280;63470;49.826;6.740;2023-02-01T10:17:06;100970.28;;;7.78;69.62
74722;BME280;63470;49.826;6.740;2023-02-01T10:19:24;100968.98;;;7.81;69.59
74722;BME280;63470;49.826;6.740;2023-02-01T10:21:57;100965.70;;;7.83;69.59
74722;BME280;63470;49.826;6.740;2023-02-01T10:24:37;100956.00;;;7.81;69.62
74722;BME280;63470;49.826;6.740;2023-02-01T10:27:07;100951.31;;;7.79;69.63
74722;BME280;63470;49.826;6.740;2023-02-01T10:29:20;100951.22;;;7.80;69.67
74722;BME280;63470;49.826;6.740;2023-02-01T10:31:49;100951.81;;;7.84;69.66
74722;BME280;63470;49.826;6.740;2023-02-01T10:34:27;100948.38;;;7.86;69.66
74722;BME280;63470;49.826;6.740;2023-02-01T10:36:53;100943.56;;;7.88;69.70
74722;BME280;63470;49.826;6.740;2023-02-01T10:39:20;100940.68;;;7.90;69.67
74722;BME280;63470;49.826;6.740;2023-02-01T10:41:51;100946.13;;;7.93;69.70
74722;BME280;63470;49.826;6.740;2023-02-01T10:44:28;100943.68;;;7.95;69.70
74722;BME280;63470;49.826;6.740;2023-02-01T10:46:52;100936.02;;;7.94;69.71
74722;BME280;63470;49.826;6.740;2023-02-01T10:49:37;100928.73;;;7.95;69.72
74722;BME280;63470;49.826;6.740;2023-02-01T10:52:29;100926.77;;;7.97;69.71
74722;BME280;63470;49.826;6.740;2023-02-01T10:54:38;100923.31;;;7.98;69.71
74722;BME280;63470;49.826;6.740;2023-02-01T10:56:55;100919.08;;;8.03;69.72
74722;BME280;63470;49.826;6.740;2023-02-01T10:59:28;100914.98;;;8.08;69.71
74722;BME280;63470;49.826;6.740;2023-02-01T11:02:00;100909.52;;;8.13;69.66
74722;BME280;63470;49.826;6.740;2023-02-01T11:04:32;100911.23;;;8.16;69.60
74722;BME280;63470;49.826;6.740;2023-02-01T11:07:24;100912.77;;;8.22;69.56
74722;BME280;63470;49.826;6.740;2023-02-01T11:09:27;100910.68;;;8.31;69.47
74722;BME280;63470;49.826;6.740;2023-02-01T11:11:59;100909.83;;;8.40;69.42
74722;BME280;63470;49.826;6.740;2023-02-01T11:14:39;100909.83;;;8.44;69.36
74722;BME280;63470;49.826;6.740;2023-02-01T11:17:03;100905.39;;;8.43;69.43
74722;BME280;63470;49.826;6.740;2023-02-01T11:19:30;100908.71;;;8.48;69.69
74722;BME280;63470;49.826;6.740;2023-02-01T11:22:05;100905.23;;;8.47;69.62
74722;BME280;63470;49.826;6.740;2023-02-01T11:24:36;100906.64;;;8.46;69.59
74722;BME280;63470;49.826;6.740;2023-02-01T11:27:14;100898.58;;;8.45;69.55
74722;BME280;63470;49.826;6.740;2023-02-01T11:29:37;100898.92;;;8.46;69.53
74722;BME280;63470;49.826;6.740;2023-02-01T11:32:01;100901.38;;;8.45;69.53
74722;BME280;63470;49.826;6.740;2023-02-01T11:34:38;100904.48;;;8.43;69.57
74722;BME280;63470;49.826;6.740;2023-02-01T11:37:04;100899.78;;;8.39;69.62
74722;BME280;63470;49.826;6.740;2023-02-01T11:39:34;100901.59;;;8.35;69.67
74722;BME280;63470;49.826;6.740;2023-02-01T11:42:14;100905.59;;;8.33;69.74
74722;BME280;63470;49.826;6.740;2023-02-01T11:44:37;100901.99;;;8.34;69.77
74722;BME280;63470;49.826;6.740;2023-02-01T11:47:27;100907.75;;;8.37;69.75
74722;BME280;63470;49.826;6.740;2023-02-01T11:49:38;100909.00;;;8.38;69.77
74722;BME280;63470;49.826;6.740;2023-02-01T11:55:06;100912.39;;;8.44;69.67
74722;BME280;63470;49.826;6.740;2023-02-01T11:57:20;100906.45;;;8.45;69.63
74722;BME280;63470;49.826;6.740;2023-02-01T12:07:19;100904.89;;;8.44;69.68
74722;BME280;63470;49.826;6.740;2023-02-01T12:12:19;100891.38;;;8.63;69.58
74722;BME280;63470;49.826;6.740;2023-02-01T12:22:25;100862.89;;;8.96;69.23
74722;BME280;63470;49.826;6.740;2023-02-01T12:32:30;100842.27;;;10.06;68.82
74722;BME280;63470;49.826;6.740;2023-02-01T12:34:59;100832.73;;;10.05;68.56
74722;BME280;63470;49.826;6.740;2023-02-01T12:42:24;100809.25;;;9.76;69.06
74722;BME280;63470;49.826;6.740;2023-02-01T12:44:59;100808.18;;;9.82;69.06
74722;BME280;63470;49.826;6.740;2023-02-01T12:47:32;100790.78;;;9.81;69.00
74722;BME280;63470;49.826;6.740;2023-02-01T12:49:49;100786.58;;;9.79;69.01
74722;BME280;63470;49.826;6.740;2023-02-01T12:52:21;100782.55;;;9.77;69.04
74722;BME280;63470;49.826;6.740;2023-02-01T12:59:52;100781.27;;;10.07;69.31
74722;BME280;63470;49.826;6.740;2023-02-01T13:02:39;100780.82;;;10.57;69.17
74722;BME280;63470;49.826;6.740;2023-02-01T13:05:02;100782.06;;;10.77;68.61
74722;BME280;63470;49.826;6.740;2023-02-01T13:07:20;100784.80;;;10.88;68.60
74722;BME280;63470;49.826;6.740;2023-02-01T13:09:57;100790.47;;;10.92;68.64
74722;BME280;63470;49.826;6.740;2023-02-01T13:12:24;100794.37;;;10.87;68.69
74722;BME280;63470;49.826;6.740;2023-02-01T13:14:53;100790.12;;;10.81;68.70
74722;BME280;63470;49.826;6.740;2023-02-01T13:17:21;100789.16;;;10.70;68.82
74722;BME280;63470;49.826;6.740;2023-02-01T13:19:59;100793.58;;;10.61;68.98
74722;BME280;63470;49.826;6.740;2023-02-01T13:22:27;100788.89;;;10.47;69.10
74722;BME280;63470;49.826;6.740;2023-02-01T13:25:26;100790.52;;;10.40;69.12
74722;BME280;63470;49.826;6.740;2023-02-01T13:27:23;100790.59;;;10.27;69.22
74722;BME280;63470;49.826;6.740;2023-02-01T13:30:10;100791.64;;;10.14;69.38
74722;BME280;63470;49.826;6.740;2023-02-01T13:32:37;100795.64;;;10.01;69.48
74722;BME280;63470;49.826;6.740;2023-02-01T13:42:26;100797.48;;;9.49;69.85
74722;BME280;63470;49.826;6.740;2023-02-01T13:44:59;100797.47;;;9.44;69.88
74722;BME280;63470;49.826;6.740;2023-02-01T13:47:35;100790.56;;;9.42;69.88
74722;BME280;63470;49.826;6.740;2023-02-01T13:49:57;100782.32;;;9.44;69.83
74722;BME280;63470;49.826;6.740;2023-02-01T13:57:40;100780.06;;;9.59;69.54
74722;BME280;63470;49.826;6.740;2023-02-01T14:00:25;100780.03;;;9.66;69.44
74722;BME280;63470;49.826;6.740;2023-02-01T14:02:47;100788.33;;;9.75;69.25
74722;BME280;63470;49.826;6.740;2023-02-01T14:04:57;100789.86;;;9.98;69.15
74722;BME280;63470;49.826;6.740;2023-02-01T14:07:30;100786.45;;;10.15;68.83
74722;BME280;63470;49.826;6.740;2023-02-01T14:12:45;100786.92;;;10.17;68.55
74722;BME280;63470;49.826;6.740;2023-02-01T14:15:24;100779.62;;;10.11;68.73
74722;BME280;63470;49.826;6.740;2023-02-01T14:17:33;100783.91;;;10.07;68.65
74722;BME280;63470;49.826;6.740;2023-02-01T14:20:42;100783.72;;;10.15;68.73
74722;BME280;63470;49.826;6.740;2023-02-01T14:22:35;100783.93;;;10.38;68.61
74722;BME280;63470;49.826;6.740;2023-02-01T14:25:03;100785.91;;;10.62;68.42
74722;BME280;63470;49.826;6.740;2023-02-01T14:27:35;100791.59;;;10.86;68.25